Assenede, Belgium
Current Conditions -  °F | °C
As of 7:55 AM on Thursday 27 Nov 2014 (Local Time) from EHFS Reporting Station
Haze Haze  
Wind Chill: 50°   Ceiling: 200
Heat Index: 50°   Visibility: 1.9mi
Dew Point: 50°   Wind: 9mph
Humidity: 100%   Direction: 170°S
Pressure: 29.71"   Gusts: NA
Location:  51.23°N, 3.75°E
Report Text: EHFS 270655Z AUTO 17008KT 3100 BR OVC002/// 10/10 Q1006
Loading
Personal Weather Stations






























Interactive Weather Map New forecast layout! Learn more

10-Day Weather Forecast

Advertisements
Track Severe Weather on mobile